sensor_id;sensor_type;location;lat;lon;timestamp;P1;durP1;ratioP1;P2;durP2;ratioP2
85705;SDS011;76142;52.376;9.712;2024-02-26T00:02:16;6.03;;;4.00;;
85705;SDS011;76142;52.376;9.712;2024-02-26T00:04:42;9.10;;;4.75;;
85705;SDS011;76142;52.376;9.712;2024-02-26T00:07:07;7.60;;;4.15;;
85705;SDS011;76142;52.376;9.712;2024-02-26T00:09:33;7.65;;;4.28;;
85705;SDS011;76142;52.376;9.712;2024-02-26T00:12:01;12.55;;;5.05;;
85705;SDS011;76142;52.376;9.712;2024-02-26T00:14:28;8.98;;;4.70;;
85705;SDS011;76142;52.376;9.712;2024-02-26T00:16:55;11.15;;;5.13;;
85705;SDS011;76142;52.376;9.712;2024-02-26T00:19:20;8.75;;;4.85;;
85705;SDS011;76142;52.376;9.712;2024-02-26T00:21:46;9.85;;;4.93;;
85705;SDS011;76142;52.376;9.712;2024-02-26T00:24:12;7.15;;;4.47;;
85705;SDS011;76142;52.376;9.712;2024-02-26T00:26:37;8.73;;;4.80;;
85705;SDS011;76142;52.376;9.712;2024-02-26T00:29:03;9.20;;;4.97;;
85705;SDS011;76142;52.376;9.712;2024-02-26T00:31:29;9.60;;;5.30;;
85705;SDS011;76142;52.376;9.712;2024-02-26T00:33:54;11.65;;;5.80;;
85705;SDS011;76142;52.376;9.712;2024-02-26T00:36:20;8.77;;;4.53;;
85705;SDS011;76142;52.376;9.712;2024-02-26T00:38:46;8.77;;;4.88;;
85705;SDS011;76142;52.376;9.712;2024-02-26T00:41:16;9.02;;;4.57;;
85705;SDS011;76142;52.376;9.712;2024-02-26T00:43:43;10.05;;;4.82;;
85705;SDS011;76142;52.376;9.712;2024-02-26T00:46:08;6.93;;;4.50;;
85705;SDS011;76142;52.376;9.712;2024-02-26T00:48:34;7.43;;;4.40;;
85705;SDS011;76142;52.376;9.712;2024-02-26T00:51:00;9.00;;;4.57;;
85705;SDS011;76142;52.376;9.712;2024-02-26T00:53:26;7.47;;;4.40;;
85705;SDS011;76142;52.376;9.712;2024-02-26T00:55:51;8.00;;;4.68;;
85705;SDS011;76142;52.376;9.712;2024-02-26T00:58:17;7.88;;;4.18;;
85705;SDS011;76142;52.376;9.712;2024-02-26T01:00:44;12.30;;;4.90;;
85705;SDS011;76142;52.376;9.712;2024-02-26T01:03:09;7.93;;;3.83;;
85705;SDS011;76142;52.376;9.712;2024-02-26T01:05:35;6.63;;;4.28;;
85705;SDS011;76142;52.376;9.712;2024-02-26T01:08:02;9.18;;;4.15;;
85705;SDS011;76142;52.376;9.712;2024-02-26T01:10:29;5.85;;;3.90;;
85705;SDS011;76142;52.376;9.712;2024-02-26T01:12:54;8.38;;;3.97;;
85705;SDS011;76142;52.376;9.712;2024-02-26T01:15:20;7.68;;;4.20;;
85705;SDS011;76142;52.376;9.712;2024-02-26T01:17:49;7.68;;;4.20;;
85705;SDS011;76142;52.376;9.712;2024-02-26T01:20:15;8.02;;;4.07;;
85705;SDS011;76142;52.376;9.712;2024-02-26T01:22:42;9.07;;;4.30;;
85705;SDS011;76142;52.376;9.712;2024-02-26T01:25:08;9.13;;;4.20;;
85705;SDS011;76142;52.376;9.712;2024-02-26T01:27:34;8.63;;;4.40;;
85705;SDS011;76142;52.376;9.712;2024-02-26T01:30:02;9.68;;;4.40;;
85705;SDS011;76142;52.376;9.712;2024-02-26T01:32:29;11.45;;;4.28;;
85705;SDS011;76142;52.376;9.712;2024-02-26T01:34:55;11.15;;;5.10;;
85705;SDS011;76142;52.376;9.712;2024-02-26T01:37:21;10.13;;;4.63;;
85705;SDS011;76142;52.376;9.712;2024-02-26T01:39:46;9.43;;;4.47;;
85705;SDS011;76142;52.376;9.712;2024-02-26T01:42:12;10.60;;;4.88;;
85705;SDS011;76142;52.376;9.712;2024-02-26T01:44:38;9.05;;;4.28;;
85705;SDS011;76142;52.376;9.712;2024-02-26T01:47:04;7.30;;;3.88;;
85705;SDS011;76142;52.376;9.712;2024-02-26T01:49:33;9.23;;;4.18;;
85705;SDS011;76142;52.376;9.712;2024-02-26T01:52:00;7.13;;;3.88;;
85705;SDS011;76142;52.376;9.712;2024-02-26T01:54:27;6.63;;;3.95;;
85705;SDS011;76142;52.376;9.712;2024-02-26T01:56:55;8.13;;;4.20;;
85705;SDS011;76142;52.376;9.712;2024-02-26T01:59:21;6.70;;;3.70;;
85705;SDS011;76142;52.376;9.712;2024-02-26T02:01:48;6.78;;;3.85;;
85705;SDS011;76142;52.376;9.712;2024-02-26T02:04:19;7.75;;;3.65;;
85705;SDS011;76142;52.376;9.712;2024-02-26T02:06:46;7.72;;;3.95;;
85705;SDS011;76142;52.376;9.712;2024-02-26T02:09:13;10.55;;;4.10;;
85705;SDS011;76142;52.376;9.712;2024-02-26T02:11:38;9.25;;;4.60;;
85705;SDS011;76142;52.376;9.712;2024-02-26T02:14:04;9.07;;;4.25;;
85705;SDS011;76142;52.376;9.712;2024-02-26T02:16:30;9.57;;;4.30;;
85705;SDS011;76142;52.376;9.712;2024-02-26T02:18:56;8.95;;;4.60;;
85705;SDS011;76142;52.376;9.712;2024-02-26T02:21:21;9.13;;;4.60;;
85705;SDS011;76142;52.376;9.712;2024-02-26T02:23:47;7.97;;;3.90;;
85705;SDS011;76142;52.376;9.712;2024-02-26T02:26:13;6.47;;;3.95;;
85705;SDS011;76142;52.376;9.712;2024-02-26T02:28:40;6.28;;;3.42;;
85705;SDS011;76142;52.376;9.712;2024-02-26T02:31:06;8.20;;;3.70;;
85705;SDS011;76142;52.376;9.712;2024-02-26T02:33:32;7.13;;;3.47;;
85705;SDS011;76142;52.376;9.712;2024-02-26T02:35:59;6.38;;;3.85;;
85705;SDS011;76142;52.376;9.712;2024-02-26T02:38:24;5.43;;;3.63;;
85705;SDS011;76142;52.376;9.712;2024-02-26T02:40:54;4.93;;;3.38;;
85705;SDS011;76142;52.376;9.712;2024-02-26T02:43:19;7.57;;;3.70;;
85705;SDS011;76142;52.376;9.712;2024-02-26T02:45:45;8.52;;;3.75;;
85705;SDS011;76142;52.376;9.712;2024-02-26T02:48:11;6.22;;;3.47;;
85705;SDS011;76142;52.376;9.712;2024-02-26T02:50:37;7.35;;;3.80;;
85705;SDS011;76142;52.376;9.712;2024-02-26T02:53:02;7.55;;;3.60;;
85705;SDS011;76142;52.376;9.712;2024-02-26T02:55:28;7.22;;;3.60;;
85705;SDS011;76142;52.376;9.712;2024-02-26T02:57:54;5.07;;;3.25;;
85705;SDS011;76142;52.376;9.712;2024-02-26T03:00:20;6.97;;;3.25;;
85705;SDS011;76142;52.376;9.712;2024-02-26T03:02:48;6.50;;;3.63;;
85705;SDS011;76142;52.376;9.712;2024-02-26T03:05:14;5.50;;;3.33;;
85705;SDS011;76142;52.376;9.712;2024-02-26T03:07:39;5.35;;;3.35;;
85705;SDS011;76142;52.376;9.712;2024-02-26T03:10:05;4.82;;;3.35;;
85705;SDS011;76142;52.376;9.712;2024-02-26T03:12:31;6.03;;;3.03;;
85705;SDS011;76142;52.376;9.712;2024-02-26T03:14:57;6.93;;;3.28;;
85705;SDS011;76142;52.376;9.712;2024-02-26T03:17:23;6.13;;;3.10;;
85705;SDS011;76142;52.376;9.712;2024-02-26T03:19:49;6.18;;;3.30;;
85705;SDS011;76142;52.376;9.712;2024-02-26T03:22:18;5.57;;;3.08;;
85705;SDS011;76142;52.376;9.712;2024-02-26T03:24:44;6.00;;;3.00;;
85705;SDS011;76142;52.376;9.712;2024-02-26T03:27:10;6.78;;;3.58;;
85705;SDS011;76142;52.376;9.712;2024-02-26T03:29:37;4.72;;;3.10;;
85705;SDS011;76142;52.376;9.712;2024-02-26T03:32:03;8.60;;;3.17;;
85705;SDS011;76142;52.376;9.712;2024-02-26T03:34:29;6.65;;;3.20;;
85705;SDS011;76142;52.376;9.712;2024-02-26T03:37:05;6.90;;;2.85;;
85705;SDS011;76142;52.376;9.712;2024-02-26T03:39:32;5.38;;;3.17;;
85705;SDS011;76142;52.376;9.712;2024-02-26T03:41:58;4.63;;;3.08;;
85705;SDS011;76142;52.376;9.712;2024-02-26T03:44:24;5.47;;;2.70;;
85705;SDS011;76142;52.376;9.712;2024-02-26T03:46:50;4.53;;;2.78;;
85705;SDS011;76142;52.376;9.712;2024-02-26T03:49:15;6.97;;;2.95;;
85705;SDS011;76142;52.376;9.712;2024-02-26T03:51:41;6.28;;;3.13;;
85705;SDS011;76142;52.376;9.712;2024-02-26T03:54:07;5.15;;;2.88;;
85705;SDS011;76142;52.376;9.712;2024-02-26T03:56:33;4.45;;;3.00;;
85705;SDS011;76142;52.376;9.712;2024-02-26T03:58:58;5.57;;;3.42;;
85705;SDS011;76142;52.376;9.712;2024-02-26T04:01:26;4.63;;;2.90;;
85705;SDS011;76142;52.376;9.712;2024-02-26T04:03:52;5.45;;;2.90;;
85705;SDS011;76142;52.376;9.712;2024-02-26T04:06:18;5.93;;;3.03;;
85705;SDS011;76142;52.376;9.712;2024-02-26T04:08:45;4.28;;;2.75;;
85705;SDS011;76142;52.376;9.712;2024-02-26T04:11:11;4.45;;;2.58;;
85705;SDS011;76142;52.376;9.712;2024-02-26T04:13:38;5.43;;;3.00;;
85705;SDS011;76142;52.376;9.712;2024-02-26T04:16:04;4.28;;;3.00;;
85705;SDS011;76142;52.376;9.712;2024-02-26T04:18:30;5.07;;;2.55;;
85705;SDS011;76142;52.376;9.712;2024-02-26T04:20:59;4.57;;;2.78;;
85705;SDS011;76142;52.376;9.712;2024-02-26T04:23:24;4.55;;;2.72;;
85705;SDS011;76142;52.376;9.712;2024-02-26T04:25:50;5.55;;;2.92;;
85705;SDS011;76142;52.376;9.712;2024-02-26T04:28:18;5.43;;;2.88;;
85705;SDS011;76142;52.376;9.712;2024-02-26T04:30:45;4.28;;;2.90;;
85705;SDS011;76142;52.376;9.712;2024-02-26T04:33:12;4.70;;;2.90;;
85705;SDS011;76142;52.376;9.712;2024-02-26T04:35:38;5.22;;;2.88;;
85705;SDS011;76142;52.376;9.712;2024-02-26T04:38:04;3.83;;;3.20;;
85705;SDS011;76142;52.376;9.712;2024-02-26T04:40:29;5.40;;;3.08;;
85705;SDS011;76142;52.376;9.712;2024-02-26T04:42:55;6.32;;;2.58;;
85705;SDS011;76142;52.376;9.712;2024-02-26T04:45:21;6.13;;;3.35;;
85705;SDS011;76142;52.376;9.712;2024-02-26T04:47:46;4.55;;;3.00;;
85705;SDS011;76142;52.376;9.712;2024-02-26T04:50:12;5.00;;;3.10;;
85705;SDS011;76142;52.376;9.712;2024-02-26T04:52:37;4.15;;;3.05;;
85705;SDS011;76142;52.376;9.712;2024-02-26T04:55:03;8.98;;;2.90;;
85705;SDS011;76142;52.376;9.712;2024-02-26T04:57:29;6.50;;;3.10;;
85705;SDS011;76142;52.376;9.712;2024-02-26T04:59:54;4.63;;;3.13;;
85705;SDS011;76142;52.376;9.712;2024-02-26T05:02:20;4.10;;;3.08;;
85705;SDS011;76142;52.376;9.712;2024-02-26T05:04:46;5.85;;;3.00;;
85705;SDS011;76142;52.376;9.712;2024-02-26T05:07:12;5.18;;;3.15;;
85705;SDS011;76142;52.376;9.712;2024-02-26T05:09:37;4.50;;;3.28;;
85705;SDS011;76142;52.376;9.712;2024-02-26T05:12:03;5.22;;;3.35;;
85705;SDS011;76142;52.376;9.712;2024-02-26T05:14:29;4.97;;;3.50;;
85705;SDS011;76142;52.376;9.712;2024-02-26T05:16:55;9.48;;;3.40;;
85705;SDS011;76142;52.376;9.712;2024-02-26T05:19:21;5.35;;;3.28;;
85705;SDS011;76142;52.376;9.712;2024-02-26T05:21:46;6.15;;;2.88;;
85705;SDS011;76142;52.376;9.712;2024-02-26T05:24:14;4.18;;;2.83;;
85705;SDS011;76142;52.376;9.712;2024-02-26T05:26:40;4.97;;;3.50;;
85705;SDS011;76142;52.376;9.712;2024-02-26T05:29:06;4.13;;;3.17;;
85705;SDS011;76142;52.376;9.712;2024-02-26T05:31:32;5.25;;;3.00;;
85705;SDS011;76142;52.376;9.712;2024-02-26T05:33:57;6.07;;;3.45;;
85705;SDS011;76142;52.376;9.712;2024-02-26T05:36:23;3.40;;;3.00;;
85705;SDS011;76142;52.376;9.712;2024-02-26T05:38:50;4.80;;;3.30;;
85705;SDS011;76142;52.376;9.712;2024-02-26T05:41:16;6.05;;;3.55;;
85705;SDS011;76142;52.376;9.712;2024-02-26T05:43:47;4.63;;;3.15;;
85705;SDS011;76142;52.376;9.712;2024-02-26T05:46:16;6.60;;;3.15;;
85705;SDS011;76142;52.376;9.712;2024-02-26T05:48:43;9.00;;;3.55;;
85705;SDS011;76142;52.376;9.712;2024-02-26T05:51:18;3.95;;;3.08;;
85705;SDS011;76142;52.376;9.712;2024-02-26T05:53:44;4.90;;;2.90;;
85705;SDS011;76142;52.376;9.712;2024-02-26T05:56:10;5.43;;;3.55;;
85705;SDS011;76142;52.376;9.712;2024-02-26T05:58:36;6.93;;;3.60;;
85705;SDS011;76142;52.376;9.712;2024-02-26T06:01:01;3.70;;;2.92;;
85705;SDS011;76142;52.376;9.712;2024-02-26T06:03:27;5.40;;;3.33;;
85705;SDS011;76142;52.376;9.712;2024-02-26T06:05:53;6.70;;;3.40;;
85705;SDS011;76142;52.376;9.712;2024-02-26T06:08:19;4.88;;;3.38;;
85705;SDS011;76142;52.376;9.712;2024-02-26T06:10:44;6.88;;;3.60;;
85705;SDS011;76142;52.376;9.712;2024-02-26T06:13:10;6.90;;;3.38;;
85705;SDS011;76142;52.376;9.712;2024-02-26T06:15:36;5.43;;;3.10;;
85705;SDS011;76142;52.376;9.712;2024-02-26T06:18:02;7.53;;;3.55;;
85705;SDS011;76142;52.376;9.712;2024-02-26T06:20:27;7.97;;;3.58;;
85705;SDS011;76142;52.376;9.712;2024-02-26T06:22:53;3.90;;;3.17;;
85705;SDS011;76142;52.376;9.712;2024-02-26T06:25:19;9.43;;;3.30;;
85705;SDS011;76142;52.376;9.712;2024-02-26T06:27:45;7.47;;;3.25;;
85705;SDS011;76142;52.376;9.712;2024-02-26T06:30:11;5.30;;;3.53;;
85705;SDS011;76142;52.376;9.712;2024-02-26T06:32:37;7.78;;;3.53;;
85705;SDS011;76142;52.376;9.712;2024-02-26T06:35:03;5.82;;;3.60;;
85705;SDS011;76142;52.376;9.712;2024-02-26T06:37:34;6.03;;;3.53;;
85705;SDS011;76142;52.376;9.712;2024-02-26T06:40:00;4.78;;;3.47;;
85705;SDS011;76142;52.376;9.712;2024-02-26T06:42:28;6.40;;;3.58;;
85705;SDS011;76142;52.376;9.712;2024-02-26T06:44:55;5.40;;;3.65;;
85705;SDS011;76142;52.376;9.712;2024-02-26T06:47:21;5.97;;;3.72;;
85705;SDS011;76142;52.376;9.712;2024-02-26T06:49:47;4.28;;;3.13;;
85705;SDS011;76142;52.376;9.712;2024-02-26T06:52:12;5.85;;;3.28;;
85705;SDS011;76142;52.376;9.712;2024-02-26T06:54:38;8.75;;;3.30;;
85705;SDS011;76142;52.376;9.712;2024-02-26T06:57:04;5.47;;;3.40;;
85705;SDS011;76142;52.376;9.712;2024-02-26T06:59:29;5.68;;;3.45;;
85705;SDS011;76142;52.376;9.712;2024-02-26T07:01:55;5.68;;;3.53;;
85705;SDS011;76142;52.376;9.712;2024-02-26T07:04:21;5.85;;;3.60;;
85705;SDS011;76142;52.376;9.712;2024-02-26T07:06:47;7.25;;;3.60;;
85705;SDS011;76142;52.376;9.712;2024-02-26T07:09:12;5.85;;;3.92;;
85705;SDS011;76142;52.376;9.712;2024-02-26T07:11:38;5.00;;;3.30;;
85705;SDS011;76142;52.376;9.712;2024-02-26T07:14:11;4.20;;;2.95;;
85705;SDS011;76142;52.376;9.712;2024-02-26T07:16:37;6.10;;;3.63;;
85705;SDS011;76142;52.376;9.712;2024-02-26T07:19:03;6.13;;;3.63;;
85705;SDS011;76142;52.376;9.712;2024-02-26T07:21:29;12.77;;;4.25;;
85705;SDS011;76142;52.376;9.712;2024-02-26T07:23:55;10.80;;;3.67;;
85705;SDS011;76142;52.376;9.712;2024-02-26T07:26:21;6.53;;;3.65;;
85705;SDS011;76142;52.376;9.712;2024-02-26T07:28:49;4.50;;;3.50;;
85705;SDS011;76142;52.376;9.712;2024-02-26T07:31:15;6.88;;;3.60;;
85705;SDS011;76142;52.376;9.712;2024-02-26T07:33:42;8.95;;;3.40;;
85705;SDS011;76142;52.376;9.712;2024-02-26T07:36:08;5.93;;;3.97;;
85705;SDS011;76142;52.376;9.712;2024-02-26T07:38:34;5.45;;;4.05;;
85705;SDS011;76142;52.376;9.712;2024-02-26T07:41:01;6.60;;;4.13;;
85705;SDS011;76142;52.376;9.712;2024-02-26T07:43:27;5.35;;;3.95;;
85705;SDS011;76142;52.376;9.712;2024-02-26T07:45:53;10.40;;;4.70;;
85705;SDS011;76142;52.376;9.712;2024-02-26T07:48:18;6.43;;;4.13;;
85705;SDS011;76142;52.376;9.712;2024-02-26T07:50:44;6.28;;;4.00;;
85705;SDS011;76142;52.376;9.712;2024-02-26T07:53:10;5.85;;;4.03;;
85705;SDS011;76142;52.376;9.712;2024-02-26T07:55:36;6.55;;;4.38;;
85705;SDS011;76142;52.376;9.712;2024-02-26T07:58:01;6.18;;;4.20;;
85705;SDS011;76142;52.376;9.712;2024-02-26T08:00:27;6.63;;;4.32;;
85705;SDS011;76142;52.376;9.712;2024-02-26T08:02:53;6.18;;;4.10;;
85705;SDS011;76142;52.376;9.712;2024-02-26T08:05:19;6.97;;;4.55;;
85705;SDS011;76142;52.376;9.712;2024-02-26T08:07:44;5.25;;;3.95;;
85705;SDS011;76142;52.376;9.712;2024-02-26T08:10:10;6.25;;;4.18;;
85705;SDS011;76142;52.376;9.712;2024-02-26T08:12:36;5.10;;;3.78;;
85705;SDS011;76142;52.376;9.712;2024-02-26T08:15:02;8.80;;;4.03;;
85705;SDS011;76142;52.376;9.712;2024-02-26T08:17:28;9.73;;;3.50;;
85705;SDS011;76142;52.376;9.712;2024-02-26T08:19:53;6.50;;;3.88;;
85705;SDS011;76142;52.376;9.712;2024-02-26T08:22:19;5.85;;;3.60;;
85705;SDS011;76142;52.376;9.712;2024-02-26T08:24:45;6.22;;;3.88;;
85705;SDS011;76142;52.376;9.712;2024-02-26T08:27:11;4.60;;;3.45;;
85705;SDS011;76142;52.376;9.712;2024-02-26T08:29:38;5.60;;;3.80;;
85705;SDS011;76142;52.376;9.712;2024-02-26T08:32:03;7.43;;;3.67;;
85705;SDS011;76142;52.376;9.712;2024-02-26T08:34:30;6.07;;;3.80;;
85705;SDS011;76142;52.376;9.712;2024-02-26T08:36:56;6.40;;;3.88;;
85705;SDS011;76142;52.376;9.712;2024-02-26T08:39:22;6.40;;;3.88;;
85705;SDS011;76142;52.376;9.712;2024-02-26T08:41:47;9.80;;;3.92;;
85705;SDS011;76142;52.376;9.712;2024-02-26T08:44:13;5.75;;;3.20;;
85705;SDS011;76142;52.376;9.712;2024-02-26T08:46:39;6.85;;;3.38;;
85705;SDS011;76142;52.376;9.712;2024-02-26T08:49:04;5.03;;;3.55;;
85705;SDS011;76142;52.376;9.712;2024-02-26T08:51:30;6.13;;;3.03;;
85705;SDS011;76142;52.376;9.712;2024-02-26T08:53:56;5.38;;;3.28;;
85705;SDS011;76142;52.376;9.712;2024-02-26T08:56:21;4.20;;;2.83;;
85705;SDS011;76142;52.376;9.712;2024-02-26T08:58:47;4.10;;;3.10;;
85705;SDS011;76142;52.376;9.712;2024-02-26T09:01:18;3.95;;;2.83;;
85705;SDS011;76142;52.376;9.712;2024-02-26T09:03:44;3.10;;;2.75;;
85705;SDS011;76142;52.376;9.712;2024-02-26T09:06:10;10.10;;;3.17;;
85705;SDS011;76142;52.376;9.712;2024-02-26T09:08:39;4.15;;;2.63;;
85705;SDS011;76142;52.376;9.712;2024-02-26T09:11:04;4.60;;;2.80;;
85705;SDS011;76142;52.376;9.712;2024-02-26T09:13:30;7.05;;;2.55;;
85705;SDS011;76142;52.376;9.712;2024-02-26T09:15:56;4.32;;;2.72;;
85705;SDS011;76142;52.376;9.712;2024-02-26T09:18:22;5.50;;;2.50;;
85705;SDS011;76142;52.376;9.712;2024-02-26T09:20:47;5.22;;;2.65;;
85705;SDS011;76142;52.376;9.712;2024-02-26T09:23:13;5.47;;;2.45;;
85705;SDS011;76142;52.376;9.712;2024-02-26T09:25:39;6.18;;;2.50;;
85705;SDS011;76142;52.376;9.712;2024-02-26T09:28:04;3.17;;;2.40;;
85705;SDS011;76142;52.376;9.712;2024-02-26T09:30:31;4.38;;;2.42;;
85705;SDS011;76142;52.376;9.712;2024-02-26T09:32:56;2.97;;;1.98;;
85705;SDS011;76142;52.376;9.712;2024-02-26T09:35:22;3.08;;;2.17;;
85705;SDS011;76142;52.376;9.712;2024-02-26T09:37:48;6.50;;;2.45;;
85705;SDS011;76142;52.376;9.712;2024-02-26T09:40:14;3.85;;;1.83;;
85705;SDS011;76142;52.376;9.712;2024-02-26T09:42:44;3.28;;;2.13;;
85705;SDS011;76142;52.376;9.712;2024-02-26T09:45:20;4.80;;;2.45;;
85705;SDS011;76142;52.376;9.712;2024-02-26T09:47:47;3.25;;;2.20;;
85705;SDS011;76142;52.376;9.712;2024-02-26T09:50:14;5.78;;;2.22;;
85705;SDS011;76142;52.376;9.712;2024-02-26T09:52:42;6.22;;;2.60;;
85705;SDS011;76142;52.376;9.712;2024-02-26T09:55:08;2.63;;;2.05;;
85705;SDS011;76142;52.376;9.712;2024-02-26T09:57:36;6.30;;;2.10;;
85705;SDS011;76142;52.376;9.712;2024-02-26T10:00:03;3.55;;;2.22;;
85705;SDS011;76142;52.376;9.712;2024-02-26T10:02:33;5.60;;;2.17;;
85705;SDS011;76142;52.376;9.712;2024-02-26T10:05:02;4.20;;;2.35;;
85705;SDS011;76142;52.376;9.712;2024-02-26T10:07:37;4.75;;;2.33;;
85705;SDS011;76142;52.376;9.712;2024-02-26T10:10:03;5.68;;;2.30;;
85705;SDS011;76142;52.376;9.712;2024-02-26T10:12:29;6.80;;;3.08;;
85705;SDS011;76142;52.376;9.712;2024-02-26T10:14:56;5.30;;;2.60;;
85705;SDS011;76142;52.376;9.712;2024-02-26T10:17:21;6.30;;;2.65;;
85705;SDS011;76142;52.376;9.712;2024-02-26T10:19:48;4.55;;;2.30;;
85705;SDS011;76142;52.376;9.712;2024-02-26T10:22:14;5.18;;;2.08;;
85705;SDS011;76142;52.376;9.712;2024-02-26T10:24:40;5.60;;;2.38;;
85705;SDS011;76142;52.376;9.712;2024-02-26T10:27:06;3.08;;;2.10;;
85705;SDS011;76142;52.376;9.712;2024-02-26T10:29:34;3.85;;;2.38;;
85705;SDS011;76142;52.376;9.712;2024-02-26T10:32:00;3.80;;;1.77;;
85705;SDS011;76142;52.376;9.712;2024-02-26T10:34:29;3.53;;;1.75;;
85705;SDS011;76142;52.376;9.712;2024-02-26T10:36:56;3.40;;;2.08;;
85705;SDS011;76142;52.376;9.712;2024-02-26T10:39:23;5.22;;;2.10;;
85705;SDS011;76142;52.376;9.712;2024-02-26T10:41:52;3.03;;;1.98;;
85705;SDS011;76142;52.376;9.712;2024-02-26T10:44:18;7.70;;;3.17;;
85705;SDS011;76142;52.376;9.712;2024-02-26T10:46:44;4.13;;;2.20;;
85705;SDS011;76142;52.376;9.712;2024-02-26T10:49:15;5.30;;;2.28;;
85705;SDS011;76142;52.376;9.712;2024-02-26T10:51:45;7.65;;;2.47;;
85705;SDS011;76142;52.376;9.712;2024-02-26T10:54:16;4.43;;;2.58;;
85705;SDS011;76142;52.376;9.712;2024-02-26T10:56:44;6.20;;;2.80;;
85705;SDS011;76142;52.376;9.712;2024-02-26T10:59:13;5.15;;;2.50;;
85705;SDS011;76142;52.376;9.712;2024-02-26T11:01:40;4.30;;;2.30;;
85705;SDS011;76142;52.376;9.712;2024-02-26T11:04:11;4.05;;;2.20;;
85705;SDS011;76142;52.376;9.712;2024-02-26T11:06:38;4.22;;;2.55;;
85705;SDS011;76142;52.376;9.712;2024-02-26T11:09:04;3.85;;;2.38;;
85705;SDS011;76142;52.376;9.712;2024-02-26T11:11:33;5.45;;;2.70;;
85705;SDS011;76142;52.376;9.712;2024-02-26T11:14:02;4.88;;;2.22;;
85705;SDS011;76142;52.376;9.712;2024-02-26T11:16:28;4.57;;;2.35;;
85705;SDS011;76142;52.376;9.712;2024-02-26T11:18:55;3.85;;;2.47;;
85705;SDS011;76142;52.376;9.712;2024-02-26T11:21:22;6.13;;;2.72;;
85705;SDS011;76142;52.376;9.712;2024-02-26T11:24:15;3.25;;;2.40;;
85705;SDS011;76142;52.376;9.712;2024-02-26T11:26:53;4.95;;;2.40;;
85705;SDS011;76142;52.376;9.712;2024-02-26T11:29:25;3.65;;;2.35;;
85705;SDS011;76142;52.376;9.712;2024-02-26T11:32:00;2.75;;;2.08;;
85705;SDS011;76142;52.376;9.712;2024-02-26T11:34:26;4.45;;;2.70;;
85705;SDS011;76142;52.376;9.712;2024-02-26T11:36:52;5.28;;;2.80;;
85705;SDS011;76142;52.376;9.712;2024-02-26T11:39:19;4.60;;;2.50;;
85705;SDS011;76142;52.376;9.712;2024-02-26T11:41:44;6.97;;;2.78;;
85705;SDS011;76142;52.376;9.712;2024-02-26T11:44:11;6.53;;;2.50;;
85705;SDS011;76142;52.376;9.712;2024-02-26T11:46:40;3.78;;;2.33;;
85705;SDS011;76142;52.376;9.712;2024-02-26T11:51:56;4.32;;;2.88;;
85705;SDS011;76142;52.376;9.712;2024-02-26T11:59:56;6.22;;;2.63;;
85705;SDS011;76142;52.376;9.712;2024-02-26T12:02:39;5.43;;;2.88;;
85705;SDS011;76142;52.376;9.712;2024-02-26T12:05:17;3.78;;;2.50;;
85705;SDS011;76142;52.376;9.712;2024-02-26T12:07:49;3.50;;;2.40;;
85705;SDS011;76142;52.376;9.712;2024-02-26T12:12:59;3.40;;;2.67;;
85705;SDS011;76142;52.376;9.712;2024-02-26T12:15:32;4.25;;;2.40;;
85705;SDS011;76142;52.376;9.712;2024-02-26T12:18:00;6.40;;;2.42;;
85705;SDS011;76142;52.376;9.712;2024-02-26T12:20:27;4.63;;;2.72;;
85705;SDS011;76142;52.376;9.712;2024-02-26T12:22:53;4.45;;;2.78;;
85705;SDS011;76142;52.376;9.712;2024-02-26T12:25:27;5.60;;;2.83;;
85705;SDS011;76142;52.376;9.712;2024-02-26T12:27:54;4.82;;;3.00;;
85705;SDS011;76142;52.376;9.712;2024-02-26T12:30:20;4.05;;;2.50;;
85705;SDS011;76142;52.376;9.712;2024-02-26T12:32:50;4.32;;;2.55;;
85705;SDS011;76142;52.376;9.712;2024-02-26T12:35:16;3.08;;;2.45;;
85705;SDS011;76142;52.376;9.712;2024-02-26T12:37:43;3.40;;;2.47;;
85705;SDS011;76142;52.376;9.712;2024-02-26T12:40:09;5.88;;;2.45;;
85705;SDS011;76142;52.376;9.712;2024-02-26T12:42:36;4.07;;;3.03;;
85705;SDS011;76142;52.376;9.712;2024-02-26T12:45:06;9.02;;;3.08;;
85705;SDS011;76142;52.376;9.712;2024-02-26T12:47:38;3.90;;;2.90;;
85705;SDS011;76142;52.376;9.712;2024-02-26T12:50:04;5.90;;;3.17;;
85705;SDS011;76142;52.376;9.712;2024-02-26T12:52:31;3.88;;;2.47;;
85705;SDS011;76142;52.376;9.712;2024-02-26T12:55:01;3.65;;;2.78;;
85705;SDS011;76142;52.376;9.712;2024-02-26T12:57:29;4.88;;;2.75;;
85705;SDS011;76142;52.376;9.712;2024-02-26T12:59:59;3.75;;;2.65;;
85705;SDS011;76142;52.376;9.712;2024-02-26T13:02:26;5.35;;;3.08;;
85705;SDS011;76142;52.376;9.712;2024-02-26T13:04:52;5.95;;;3.10;;
85705;SDS011;76142;52.376;9.712;2024-02-26T13:07:20;6.10;;;2.92;;
85705;SDS011;76142;52.376;9.712;2024-02-26T13:09:46;4.40;;;3.05;;
85705;SDS011;76142;52.376;9.712;2024-02-26T13:12:12;4.32;;;3.05;;
85705;SDS011;76142;52.376;9.712;2024-02-26T13:14:39;4.78;;;2.90;;
85705;SDS011;76142;52.376;9.712;2024-02-26T13:17:05;6.25;;;2.85;;
85705;SDS011;76142;52.376;9.712;2024-02-26T13:19:30;6.57;;;2.97;;
85705;SDS011;76142;52.376;9.712;2024-02-26T13:22:02;5.20;;;2.85;;
85705;SDS011;76142;52.376;9.712;2024-02-26T13:24:29;8.35;;;2.83;;
85705;SDS011;76142;52.376;9.712;2024-02-26T13:26:56;4.97;;;3.05;;
85705;SDS011;76142;52.376;9.712;2024-02-26T13:29:22;4.75;;;3.38;;
85705;SDS011;76142;52.376;9.712;2024-02-26T13:31:54;4.93;;;2.67;;
85705;SDS011;76142;52.376;9.712;2024-02-26T13:36:51;5.72;;;2.97;;
85705;SDS011;76142;52.376;9.712;2024-02-26T13:39:23;3.97;;;2.65;;
85705;SDS011;76142;52.376;9.712;2024-02-26T13:41:50;6.77;;;2.90;;
85705;SDS011;76142;52.376;9.712;2024-02-26T13:44:16;4.22;;;2.90;;
85705;SDS011;76142;52.376;9.712;2024-02-26T13:46:42;5.07;;;2.80;;
85705;SDS011;76142;52.376;9.712;2024-02-26T13:49:08;3.58;;;2.80;;
85705;SDS011;76142;52.376;9.712;2024-02-26T13:51:34;7.18;;;2.90;;
85705;SDS011;76142;52.376;9.712;2024-02-26T13:54:02;4.72;;;2.80;;
85705;SDS011;76142;52.376;9.712;2024-02-26T13:56:28;5.25;;;2.83;;
85705;SDS011;76142;52.376;9.712;2024-02-26T13:58:53;6.45;;;2.80;;
85705;SDS011;76142;52.376;9.712;2024-02-26T14:01:19;4.32;;;2.88;;
85705;SDS011;76142;52.376;9.712;2024-02-26T14:03:45;4.28;;;2.80;;
85705;SDS011;76142;52.376;9.712;2024-02-26T14:06:11;5.90;;;2.70;;
85705;SDS011;76142;52.376;9.712;2024-02-26T14:08:37;4.25;;;2.63;;
85705;SDS011;76142;52.376;9.712;2024-02-26T14:11:03;5.97;;;3.13;;
85705;SDS011;76142;52.376;9.712;2024-02-26T14:13:28;6.50;;;2.95;;
85705;SDS011;76142;52.376;9.712;2024-02-26T14:15:54;4.10;;;2.40;;
85705;SDS011;76142;52.376;9.712;2024-02-26T14:18:21;3.78;;;2.50;;
85705;SDS011;76142;52.376;9.712;2024-02-26T14:20:46;4.95;;;2.95;;
85705;SDS011;76142;52.376;9.712;2024-02-26T14:23:12;5.80;;;2.70;;
85705;SDS011;76142;52.376;9.712;2024-02-26T14:25:38;5.38;;;2.60;;
85705;SDS011;76142;52.376;9.712;2024-02-26T14:28:04;3.88;;;2.60;;
85705;SDS011;76142;52.376;9.712;2024-02-26T14:30:30;4.53;;;2.53;;
85705;SDS011;76142;52.376;9.712;2024-02-26T14:32:56;6.60;;;2.70;;
85705;SDS011;76142;52.376;9.712;2024-02-26T14:35:21;4.43;;;2.70;;
85705;SDS011;76142;52.376;9.712;2024-02-26T14:37:47;8.38;;;3.40;;
85705;SDS011;76142;52.376;9.712;2024-02-26T14:40:14;5.28;;;2.83;;
85705;SDS011;76142;52.376;9.712;2024-02-26T14:42:40;4.28;;;2.47;;
85705;SDS011;76142;52.376;9.712;2024-02-26T14:45:06;3.78;;;2.28;;
85705;SDS011;76142;52.376;9.712;2024-02-26T14:47:34;4.97;;;2.63;;
85705;SDS011;76142;52.376;9.712;2024-02-26T14:50:00;4.10;;;2.30;;
85705;SDS011;76142;52.376;9.712;2024-02-26T14:52:26;4.82;;;2.90;;
85705;SDS011;76142;52.376;9.712;2024-02-26T14:54:52;6.45;;;2.45;;
85705;SDS011;76142;52.376;9.712;2024-02-26T14:57:18;4.53;;;2.50;;
85705;SDS011;76142;52.376;9.712;2024-02-26T14:59:44;4.57;;;2.72;;